sensor_id;sensor_type;location;lat;lon;timestamp;pressure;altitude;pressure_sealevel;temperature;humidity
37291;BME280;23175;-33.706;151.094;2024-02-26T00:02:18;99656.26;;;22.42;44.84
37291;BME280;23175;-33.706;151.094;2024-02-26T00:04:48;99658.83;;;23.99;42.46
37291;BME280;23175;-33.706;151.094;2024-02-26T00:07:18;99657.58;;;24.07;42.60
37291;BME280;23175;-33.706;151.094;2024-02-26T00:09:48;99660.99;;;23.32;43.22
37291;BME280;23175;-33.706;151.094;2024-02-26T00:12:18;99662.41;;;22.35;44.01
37291;BME280;23175;-33.706;151.094;2024-02-26T00:14:48;99668.04;;;21.83;44.16
37291;BME280;23175;-33.706;151.094;2024-02-26T00:17:19;99667.10;;;22.15;42.13
37291;BME280;23175;-33.706;151.094;2024-02-26T00:19:49;99664.28;;;22.57;40.72
37291;BME280;23175;-33.706;151.094;2024-02-26T00:22:19;99662.70;;;23.07;41.12
37291;BME280;23175;-33.706;151.094;2024-02-26T00:24:49;99661.95;;;24.62;40.19
37291;BME280;23175;-33.706;151.094;2024-02-26T00:27:20;99662.82;;;22.83;40.86
37291;BME280;23175;-33.706;151.094;2024-02-26T00:29:49;99666.22;;;22.68;41.42
37291;BME280;23175;-33.706;151.094;2024-02-26T00:32:19;99675.87;;;25.82;39.32
37291;BME280;23175;-33.706;151.094;2024-02-26T00:34:49;99678.58;;;23.02;40.89
37291;BME280;23175;-33.706;151.094;2024-02-26T00:37:19;99700.25;;;22.56;40.52
37291;BME280;23175;-33.706;151.094;2024-02-26T00:39:49;99714.26;;;22.44;42.25
37291;BME280;23175;-33.706;151.094;2024-02-26T00:42:19;99720.17;;;21.91;44.54
37291;BME280;23175;-33.706;151.094;2024-02-26T00:44:49;99711.90;;;22.97;44.38
37291;BME280;23175;-33.706;151.094;2024-02-26T00:47:19;99720.81;;;21.17;47.49
37291;BME280;23175;-33.706;151.094;2024-02-26T00:49:50;99722.12;;;22.40;45.08
37291;BME280;23175;-33.706;151.094;2024-02-26T00:52:20;99719.56;;;22.30;45.98
37291;BME280;23175;-33.706;151.094;2024-02-26T00:54:50;99714.66;;;23.54;43.66
37291;BME280;23175;-33.706;151.094;2024-02-26T00:57:20;99715.63;;;23.14;44.69
37291;BME280;23175;-33.706;151.094;2024-02-26T00:59:50;99711.26;;;21.60;48.12
37291;BME280;23175;-33.706;151.094;2024-02-26T01:02:19;99713.84;;;22.78;46.81
37291;BME280;23175;-33.706;151.094;2024-02-26T01:04:49;99720.40;;;22.56;45.13
37291;BME280;23175;-33.706;151.094;2024-02-26T01:07:20;99722.10;;;22.59;45.28
37291;BME280;23175;-33.706;151.094;2024-02-26T01:09:50;99731.90;;;21.60;49.10
37291;BME280;23175;-33.706;151.094;2024-02-26T01:12:22;99722.27;;;21.54;49.36
37291;BME280;23175;-33.706;151.094;2024-02-26T01:14:51;99735.50;;;22.30;48.49
37291;BME280;23175;-33.706;151.094;2024-02-26T01:17:22;99742.76;;;21.05;50.75
37291;BME280;23175;-33.706;151.094;2024-02-26T01:19:51;99729.83;;;23.22;47.43
37291;BME280;23175;-33.706;151.094;2024-02-26T01:22:21;99731.43;;;21.17;50.95
37291;BME280;23175;-33.706;151.094;2024-02-26T01:24:51;99736.91;;;23.29;48.68
37291;BME280;23175;-33.706;151.094;2024-02-26T01:27:21;99733.44;;;21.65;49.14
37291;BME280;23175;-33.706;151.094;2024-02-26T01:29:51;99730.89;;;22.12;49.21
37291;BME280;23175;-33.706;151.094;2024-02-26T01:32:22;99733.17;;;21.01;48.66
37291;BME280;23175;-33.706;151.094;2024-02-26T01:34:52;99734.43;;;21.37;47.55
37291;BME280;23175;-33.706;151.094;2024-02-26T01:37:21;99740.93;;;21.33;47.20
37291;BME280;23175;-33.706;151.094;2024-02-26T01:39:51;99743.72;;;21.24;48.67
37291;BME280;23175;-33.706;151.094;2024-02-26T01:42:21;99745.79;;;22.23;48.14
37291;BME280;23175;-33.706;151.094;2024-02-26T01:44:51;99748.38;;;21.47;48.52
37291;BME280;23175;-33.706;151.094;2024-02-26T01:47:22;99745.50;;;22.15;48.57
37291;BME280;23175;-33.706;151.094;2024-02-26T01:49:52;99750.17;;;20.35;51.57
37291;BME280;23175;-33.706;151.094;2024-02-26T01:52:23;99752.80;;;21.10;52.27
37291;BME280;23175;-33.706;151.094;2024-02-26T01:54:53;99759.68;;;21.27;50.25
37291;BME280;23175;-33.706;151.094;2024-02-26T01:57:23;99756.82;;;22.10;48.54
37291;BME280;23175;-33.706;151.094;2024-02-26T01:59:53;99750.67;;;22.50;48.84
37291;BME280;23175;-33.706;151.094;2024-02-26T02:02:23;99754.94;;;22.57;49.05
37291;BME280;23175;-33.706;151.094;2024-02-26T02:04:54;99749.36;;;21.16;50.15
37291;BME280;23175;-33.706;151.094;2024-02-26T02:07:24;99752.33;;;21.98;49.27
37291;BME280;23175;-33.706;151.094;2024-02-26T02:09:55;99754.29;;;22.26;47.27
37291;BME280;23175;-33.706;151.094;2024-02-26T02:12:25;99749.95;;;21.71;49.04
37291;BME280;23175;-33.706;151.094;2024-02-26T02:14:55;99753.11;;;22.82;47.59
37291;BME280;23175;-33.706;151.094;2024-02-26T02:17:25;99754.49;;;23.38;46.55
37291;BME280;23175;-33.706;151.094;2024-02-26T02:19:55;99754.07;;;21.51;49.47
37291;BME280;23175;-33.706;151.094;2024-02-26T02:22:25;99764.19;;;20.20;50.41
37291;BME280;23175;-33.706;151.094;2024-02-26T02:24:55;99768.73;;;20.45;49.87
37291;BME280;23175;-33.706;151.094;2024-02-26T02:27:25;99762.24;;;20.69;49.19
37291;BME280;23175;-33.706;151.094;2024-02-26T02:29:55;99762.45;;;20.58;49.30
37291;BME280;23175;-33.706;151.094;2024-02-26T02:32:26;99752.84;;;19.89;51.97
37291;BME280;23175;-33.706;151.094;2024-02-26T02:34:58;99751.59;;;21.80;49.45
37291;BME280;23175;-33.706;151.094;2024-02-26T02:37:29;99754.58;;;20.94;51.69
37291;BME280;23175;-33.706;151.094;2024-02-26T02:39:58;99747.60;;;19.83;52.55
37291;BME280;23175;-33.706;151.094;2024-02-26T02:42:28;99754.32;;;20.45;49.84
37291;BME280;23175;-33.706;151.094;2024-02-26T02:44:59;99754.35;;;20.36;51.12
37291;BME280;23175;-33.706;151.094;2024-02-26T02:47:29;99755.56;;;22.72;48.05
37291;BME280;23175;-33.706;151.094;2024-02-26T02:49:59;99756.26;;;21.42;47.96
37291;BME280;23175;-33.706;151.094;2024-02-26T02:52:29;99750.68;;;21.73;47.65
37291;BME280;23175;-33.706;151.094;2024-02-26T02:55:00;99758.55;;;21.53;49.38
37291;BME280;23175;-33.706;151.094;2024-02-26T02:57:31;99756.03;;;21.03;50.12
37291;BME280;23175;-33.706;151.094;2024-02-26T03:00:01;99748.90;;;20.79;48.82
37291;BME280;23175;-33.706;151.094;2024-02-26T03:02:32;99748.03;;;21.30;48.85
37291;BME280;23175;-33.706;151.094;2024-02-26T03:05:02;99747.01;;;21.17;47.30
37291;BME280;23175;-33.706;151.094;2024-02-26T03:07:33;99752.98;;;21.52;47.66
37291;BME280;23175;-33.706;151.094;2024-02-26T03:10:03;99749.83;;;22.16;47.75
37291;BME280;23175;-33.706;151.094;2024-02-26T03:12:35;99749.73;;;22.91;47.16
37291;BME280;23175;-33.706;151.094;2024-02-26T03:15:20;99750.49;;;20.83;49.52
37291;BME280;23175;-33.706;151.094;2024-02-26T03:17:49;99753.78;;;21.60;49.30
37291;BME280;23175;-33.706;151.094;2024-02-26T03:20:20;99746.45;;;21.92;49.29
37291;BME280;23175;-33.706;151.094;2024-02-26T03:22:49;99754.37;;;21.37;49.80
37291;BME280;23175;-33.706;151.094;2024-02-26T03:25:19;99745.06;;;21.84;48.02
37291;BME280;23175;-33.706;151.094;2024-02-26T03:27:49;99747.10;;;21.35;49.12
37291;BME280;23175;-33.706;151.094;2024-02-26T03:30:19;99742.35;;;23.35;46.38
37291;BME280;23175;-33.706;151.094;2024-02-26T03:32:49;99738.97;;;20.98;49.99
37291;BME280;23175;-33.706;151.094;2024-02-26T03:35:19;99738.20;;;20.69;50.35
37291;BME280;23175;-33.706;151.094;2024-02-26T03:37:49;99738.56;;;22.59;45.97
37291;BME280;23175;-33.706;151.094;2024-02-26T03:40:19;99738.03;;;21.08;48.30
37291;BME280;23175;-33.706;151.094;2024-02-26T03:42:50;99741.63;;;22.59;47.14
37291;BME280;23175;-33.706;151.094;2024-02-26T03:45:20;99747.30;;;21.61;50.05
37291;BME280;23175;-33.706;151.094;2024-02-26T03:47:50;99740.99;;;22.41;49.64
37291;BME280;23175;-33.706;151.094;2024-02-26T03:50:20;99742.69;;;19.68;54.42
37291;BME280;23175;-33.706;151.094;2024-02-26T03:52:50;99735.30;;;20.36;54.16
37291;BME280;23175;-33.706;151.094;2024-02-26T03:55:22;99736.09;;;22.77;49.88
37291;BME280;23175;-33.706;151.094;2024-02-26T03:57:53;99732.82;;;21.61;51.72
37291;BME280;23175;-33.706;151.094;2024-02-26T04:00:23;99723.21;;;21.12;51.77
37291;BME280;23175;-33.706;151.094;2024-02-26T04:02:53;99731.09;;;20.76;51.47
37291;BME280;23175;-33.706;151.094;2024-02-26T04:05:23;99722.99;;;21.58;50.67
37291;BME280;23175;-33.706;151.094;2024-02-26T04:07:53;99730.27;;;20.13;53.18
37291;BME280;23175;-33.706;151.094;2024-02-26T04:10:23;99720.85;;;20.90;52.95
37291;BME280;23175;-33.706;151.094;2024-02-26T04:12:54;99725.46;;;19.28;55.86
37291;BME280;23175;-33.706;151.094;2024-02-26T04:15:25;99722.73;;;20.59;53.29
37291;BME280;23175;-33.706;151.094;2024-02-26T04:17:55;99738.39;;;20.53;54.44
37291;BME280;23175;-33.706;151.094;2024-02-26T04:20:24;99726.89;;;22.49;51.63
37291;BME280;23175;-33.706;151.094;2024-02-26T04:22:55;99720.09;;;19.59;56.08
37291;BME280;23175;-33.706;151.094;2024-02-26T04:25:25;99716.86;;;20.64;54.98
37291;BME280;23175;-33.706;151.094;2024-02-26T04:27:54;99723.55;;;20.57;54.31
37291;BME280;23175;-33.706;151.094;2024-02-26T04:30:25;99727.06;;;20.12;56.14
37291;BME280;23175;-33.706;151.094;2024-02-26T04:32:54;99724.45;;;19.81;57.26
37291;BME280;23175;-33.706;151.094;2024-02-26T04:35:24;99725.48;;;18.98;59.11
37291;BME280;23175;-33.706;151.094;2024-02-26T04:37:55;99716.50;;;17.96;60.77
37291;BME280;23175;-33.706;151.094;2024-02-26T04:40:25;99716.48;;;19.35;58.92
37291;BME280;23175;-33.706;151.094;2024-02-26T04:42:54;99718.48;;;18.75;60.16
37291;BME280;23175;-33.706;151.094;2024-02-26T04:45:24;99719.65;;;18.60;59.52
37291;BME280;23175;-33.706;151.094;2024-02-26T04:47:54;99729.21;;;18.96;60.21
37291;BME280;23175;-33.706;151.094;2024-02-26T04:50:24;99722.55;;;20.18;57.07
37291;BME280;23175;-33.706;151.094;2024-02-26T04:52:54;99721.82;;;20.08;56.72
37291;BME280;23175;-33.706;151.094;2024-02-26T04:55:24;99734.85;;;19.62;58.15
37291;BME280;23175;-33.706;151.094;2024-02-26T04:57:54;99732.89;;;20.32;56.54
37291;BME280;23175;-33.706;151.094;2024-02-26T05:00:24;99728.62;;;20.55;55.54
37291;BME280;23175;-33.706;151.094;2024-02-26T05:02:54;99722.81;;;19.68;56.92
37291;BME280;23175;-33.706;151.094;2024-02-26T05:05:24;99727.40;;;19.60;57.13
37291;BME280;23175;-33.706;151.094;2024-02-26T05:07:55;99733.27;;;21.54;53.57
37291;BME280;23175;-33.706;151.094;2024-02-26T05:10:24;99726.04;;;21.17;54.42
37291;BME280;23175;-33.706;151.094;2024-02-26T05:12:55;99729.92;;;19.30;57.20
37291;BME280;23175;-33.706;151.094;2024-02-26T05:15:25;99730.12;;;18.90;58.09
37291;BME280;23175;-33.706;151.094;2024-02-26T05:17:55;99724.26;;;20.86;53.80
37291;BME280;23175;-33.706;151.094;2024-02-26T05:20:25;99725.83;;;19.35;56.11
37291;BME280;23175;-33.706;151.094;2024-02-26T05:22:55;99731.67;;;21.68;51.90
37291;BME280;23175;-33.706;151.094;2024-02-26T05:25:25;99731.76;;;21.64;50.59
37291;BME280;23175;-33.706;151.094;2024-02-26T05:27:55;99732.23;;;19.02;55.88
37291;BME280;23175;-33.706;151.094;2024-02-26T05:30:25;99726.37;;;21.29;51.25
37291;BME280;23175;-33.706;151.094;2024-02-26T05:32:55;99730.19;;;20.84;50.94
37291;BME280;23175;-33.706;151.094;2024-02-26T05:35:25;99724.94;;;18.56;55.04
37291;BME280;23175;-33.706;151.094;2024-02-26T05:37:55;99722.21;;;20.29;53.32
37291;BME280;23175;-33.706;151.094;2024-02-26T05:40:24;99727.12;;;21.26;52.03
37291;BME280;23175;-33.706;151.094;2024-02-26T05:42:55;99728.81;;;21.23;52.79
37291;BME280;23175;-33.706;151.094;2024-02-26T05:45:24;99733.70;;;21.43;52.45
37291;BME280;23175;-33.706;151.094;2024-02-26T05:47:54;99740.28;;;20.69;53.81
37291;BME280;23175;-33.706;151.094;2024-02-26T05:50:24;99737.73;;;21.05;52.31
37291;BME280;23175;-33.706;151.094;2024-02-26T05:52:54;99750.30;;;21.77;52.41
37291;BME280;23175;-33.706;151.094;2024-02-26T05:55:24;99751.31;;;20.80;54.97
37291;BME280;23175;-33.706;151.094;2024-02-26T05:57:55;99752.94;;;19.23;57.28
37291;BME280;23175;-33.706;151.094;2024-02-26T06:00:25;99752.73;;;21.03;54.08
37291;BME280;23175;-33.706;151.094;2024-02-26T06:02:55;99758.00;;;20.67;56.03
37291;BME280;23175;-33.706;151.094;2024-02-26T06:05:25;99759.33;;;20.80;55.47
37291;BME280;23175;-33.706;151.094;2024-02-26T06:07:55;99763.47;;;20.65;55.58
37291;BME280;23175;-33.706;151.094;2024-02-26T06:10:25;99771.27;;;19.03;59.31
37291;BME280;23175;-33.706;151.094;2024-02-26T06:12:54;99769.89;;;20.46;57.55
37291;BME280;23175;-33.706;151.094;2024-02-26T06:15:24;99770.35;;;21.45;55.15
37291;BME280;23175;-33.706;151.094;2024-02-26T06:17:54;99778.81;;;21.18;54.73
37291;BME280;23175;-33.706;151.094;2024-02-26T06:20:24;99764.83;;;20.93;54.88
37291;BME280;23175;-33.706;151.094;2024-02-26T06:22:53;99769.47;;;20.18;55.97
37291;BME280;23175;-33.706;151.094;2024-02-26T06:25:23;99777.07;;;20.75;55.65
37291;BME280;23175;-33.706;151.094;2024-02-26T06:27:54;99774.45;;;19.58;58.84
37291;BME280;23175;-33.706;151.094;2024-02-26T06:30:24;99778.32;;;22.03;54.80
37291;BME280;23175;-33.706;151.094;2024-02-26T06:32:53;99776.49;;;18.36;61.10
37291;BME280;23175;-33.706;151.094;2024-02-26T06:35:23;99777.07;;;20.71;56.67
37291;BME280;23175;-33.706;151.094;2024-02-26T06:37:53;99785.43;;;20.04;58.52
37291;BME280;23175;-33.706;151.094;2024-02-26T06:40:23;99784.45;;;19.64;59.55
37291;BME280;23175;-33.706;151.094;2024-02-26T06:42:53;99786.88;;;20.72;56.83
37291;BME280;23175;-33.706;151.094;2024-02-26T06:45:23;99796.15;;;21.31;55.82
37291;BME280;23175;-33.706;151.094;2024-02-26T06:47:53;99805.33;;;18.94;60.31
37291;BME280;23175;-33.706;151.094;2024-02-26T06:50:23;99806.66;;;19.08;59.44
37291;BME280;23175;-33.706;151.094;2024-02-26T06:52:53;99812.41;;;18.42;61.05
37291;BME280;23175;-33.706;151.094;2024-02-26T06:55:24;99813.87;;;20.38;57.97
37291;BME280;23175;-33.706;151.094;2024-02-26T06:57:54;99814.72;;;19.22;60.94
37291;BME280;23175;-33.706;151.094;2024-02-26T07:00:24;99819.08;;;20.50;57.27
37291;BME280;23175;-33.706;151.094;2024-02-26T07:02:54;99824.32;;;19.83;58.63
37291;BME280;23175;-33.706;151.094;2024-02-26T07:05:24;99828.45;;;19.31;60.23
37291;BME280;23175;-33.706;151.094;2024-02-26T07:07:55;99831.67;;;21.41;55.43
37291;BME280;23175;-33.706;151.094;2024-02-26T07:10:24;99836.47;;;18.61;60.62
37291;BME280;23175;-33.706;151.094;2024-02-26T07:12:54;99840.44;;;20.97;55.64
37291;BME280;23175;-33.706;151.094;2024-02-26T07:15:24;99845.53;;;20.05;57.36
37291;BME280;23175;-33.706;151.094;2024-02-26T07:17:53;99847.51;;;19.18;58.60
37291;BME280;23175;-33.706;151.094;2024-02-26T07:20:23;99851.10;;;19.48;59.16
37291;BME280;23175;-33.706;151.094;2024-02-26T07:22:53;99858.16;;;18.27;60.86
37291;BME280;23175;-33.706;151.094;2024-02-26T07:25:24;99857.37;;;18.71;60.20
37291;BME280;23175;-33.706;151.094;2024-02-26T07:27:54;99868.29;;;20.07;58.93
37291;BME280;23175;-33.706;151.094;2024-02-26T07:30:24;99875.96;;;19.00;60.75
37291;BME280;23175;-33.706;151.094;2024-02-26T07:32:54;99876.74;;;17.92;62.11
37291;BME280;23175;-33.706;151.094;2024-02-26T07:35:24;99872.69;;;21.11;56.87
37291;BME280;23175;-33.706;151.094;2024-02-26T07:37:53;99877.75;;;18.64;60.96
37291;BME280;23175;-33.706;151.094;2024-02-26T07:40:23;99870.68;;;20.06;58.61
37291;BME280;23175;-33.706;151.094;2024-02-26T07:42:54;99867.64;;;20.19;57.08
37291;BME280;23175;-33.706;151.094;2024-02-26T07:45:24;99873.33;;;19.03;60.32
37291;BME280;23175;-33.706;151.094;2024-02-26T07:47:54;99870.97;;;19.30;59.74
37291;BME280;23175;-33.706;151.094;2024-02-26T07:50:24;99865.25;;;19.22;59.13
37291;BME280;23175;-33.706;151.094;2024-02-26T07:52:54;99878.31;;;20.33;56.88
37291;BME280;23175;-33.706;151.094;2024-02-26T07:55:24;99879.06;;;19.81;57.64
37291;BME280;23175;-33.706;151.094;2024-02-26T07:57:54;99885.34;;;19.78;58.04
37291;BME280;23175;-33.706;151.094;2024-02-26T08:00:24;99886.96;;;20.43;57.48
37291;BME280;23175;-33.706;151.094;2024-02-26T08:02:54;99899.36;;;19.12;59.20
37291;BME280;23175;-33.706;151.094;2024-02-26T08:05:24;99898.77;;;19.28;58.53
37291;BME280;23175;-33.706;151.094;2024-02-26T08:07:54;99900.44;;;19.51;58.37
37291;BME280;23175;-33.706;151.094;2024-02-26T08:10:24;99901.97;;;18.50;60.20
37291;BME280;23175;-33.706;151.094;2024-02-26T08:12:54;99902.43;;;19.23;58.16
37291;BME280;23175;-33.706;151.094;2024-02-26T08:15:24;99904.24;;;20.68;55.91
37291;BME280;23175;-33.706;151.094;2024-02-26T08:17:54;99906.70;;;21.53;53.65
37291;BME280;23175;-33.706;151.094;2024-02-26T08:20:24;99913.62;;;18.50;60.79
37291;BME280;23175;-33.706;151.094;2024-02-26T08:22:54;99919.73;;;18.91;59.84
37291;BME280;23175;-33.706;151.094;2024-02-26T08:25:24;99922.95;;;17.87;62.11
37291;BME280;23175;-33.706;151.094;2024-02-26T08:27:54;99926.78;;;19.27;58.43
37291;BME280;23175;-33.706;151.094;2024-02-26T08:30:24;99935.15;;;18.95;59.15
37291;BME280;23175;-33.706;151.094;2024-02-26T08:32:54;99949.22;;;18.31;60.96
37291;BME280;23175;-33.706;151.094;2024-02-26T08:35:24;99946.56;;;19.28;58.41
37291;BME280;23175;-33.706;151.094;2024-02-26T08:37:55;99949.98;;;21.10;55.31
37291;BME280;23175;-33.706;151.094;2024-02-26T08:40:24;99958.04;;;20.42;56.29
37291;BME280;23175;-33.706;151.094;2024-02-26T08:42:55;99967.47;;;19.82;57.59
37291;BME280;23175;-33.706;151.094;2024-02-26T08:45:25;99968.39;;;17.72;62.03
37291;BME280;23175;-33.706;151.094;2024-02-26T08:47:55;99967.88;;;19.43;58.18
37291;BME280;23175;-33.706;151.094;2024-02-26T08:50:24;99974.24;;;19.57;57.75
37291;BME280;23175;-33.706;151.094;2024-02-26T08:52:55;99979.45;;;18.71;59.33
37291;BME280;23175;-33.706;151.094;2024-02-26T08:55:25;99980.49;;;20.04;56.66
37291;BME280;23175;-33.706;151.094;2024-02-26T08:57:55;99982.20;;;20.22;55.41
37291;BME280;23175;-33.706;151.094;2024-02-26T09:00:26;99978.50;;;20.80;54.52
37291;BME280;23175;-33.706;151.094;2024-02-26T09:02:56;99985.68;;;19.80;56.73
37291;BME280;23175;-33.706;151.094;2024-02-26T09:05:26;99989.38;;;21.30;54.17
37291;BME280;23175;-33.706;151.094;2024-02-26T09:07:56;100001.22;;;19.58;56.60
37291;BME280;23175;-33.706;151.094;2024-02-26T09:10:26;100006.35;;;19.55;56.46
37291;BME280;23175;-33.706;151.094;2024-02-26T09:12:56;100008.42;;;21.00;54.42
37291;BME280;23175;-33.706;151.094;2024-02-26T09:15:26;100014.79;;;19.36;56.26
37291;BME280;23175;-33.706;151.094;2024-02-26T09:17:56;100017.11;;;20.23;56.17
37291;BME280;23175;-33.706;151.094;2024-02-26T09:20:26;100021.11;;;19.38;57.17
37291;BME280;23175;-33.706;151.094;2024-02-26T09:22:56;100024.37;;;19.08;57.71
37291;BME280;23175;-33.706;151.094;2024-02-26T09:25:26;100030.51;;;19.09;57.39
37291;BME280;23175;-33.706;151.094;2024-02-26T09:27:57;100034.89;;;20.53;53.88
37291;BME280;23175;-33.706;151.094;2024-02-26T09:30:26;100037.79;;;22.19;50.40
37291;BME280;23175;-33.706;151.094;2024-02-26T09:32:57;100038.72;;;20.45;53.13
37291;BME280;23175;-33.706;151.094;2024-02-26T09:35:27;100050.73;;;19.94;54.12
37291;BME280;23175;-33.706;151.094;2024-02-26T09:37:57;100057.93;;;18.15;57.46
37291;BME280;23175;-33.706;151.094;2024-02-26T09:40:27;100062.41;;;21.94;51.56
37291;BME280;23175;-33.706;151.094;2024-02-26T09:43:01;100069.98;;;19.92;54.06
37291;BME280;23175;-33.706;151.094;2024-02-26T09:45:34;100068.54;;;20.12;53.84
37291;BME280;23175;-33.706;151.094;2024-02-26T09:48:06;100065.96;;;20.48;52.70
37291;BME280;23175;-33.706;151.094;2024-02-26T09:50:37;100063.40;;;20.98;51.93
37291;BME280;23175;-33.706;151.094;2024-02-26T09:53:10;100066.99;;;20.20;53.03
37291;BME280;23175;-33.706;151.094;2024-02-26T09:55:40;100064.85;;;18.50;56.06
37291;BME280;23175;-33.706;151.094;2024-02-26T09:58:11;100063.88;;;20.14;53.94
37291;BME280;23175;-33.706;151.094;2024-02-26T10:00:43;100068.69;;;18.22;57.35
37291;BME280;23175;-33.706;151.094;2024-02-26T10:03:16;100074.94;;;19.93;54.92
37291;BME280;23175;-33.706;151.094;2024-02-26T10:05:47;100064.33;;;20.92;52.21
37291;BME280;23175;-33.706;151.094;2024-02-26T10:08:19;100071.79;;;19.23;55.11
37291;BME280;23175;-33.706;151.094;2024-02-26T10:10:50;100071.27;;;20.17;53.50
37291;BME280;23175;-33.706;151.094;2024-02-26T10:13:20;100071.07;;;19.62;55.12
37291;BME280;23175;-33.706;151.094;2024-02-26T10:15:50;100072.22;;;19.55;55.25
37291;BME280;23175;-33.706;151.094;2024-02-26T10:18:20;100074.12;;;19.06;56.45
37291;BME280;23175;-33.706;151.094;2024-02-26T10:21:01;100077.88;;;18.75;56.33
37291;BME280;23175;-33.706;151.094;2024-02-26T10:23:32;100088.47;;;20.12;54.60
37291;BME280;23175;-33.706;151.094;2024-02-26T10:26:02;100089.91;;;21.71;51.01
37291;BME280;23175;-33.706;151.094;2024-02-26T10:28:33;100100.35;;;19.13;55.02
37291;BME280;23175;-33.706;151.094;2024-02-26T10:31:02;100102.04;;;21.25;51.42
37291;BME280;23175;-33.706;151.094;2024-02-26T10:33:34;100107.55;;;20.34;53.36
37291;BME280;23175;-33.706;151.094;2024-02-26T10:36:05;100112.29;;;19.64;54.01
37291;BME280;23175;-33.706;151.094;2024-02-26T10:38:36;100116.94;;;21.24;51.23
37291;BME280;23175;-33.706;151.094;2024-02-26T10:41:07;100119.43;;;20.89;52.00
37291;BME280;23175;-33.706;151.094;2024-02-26T10:43:43;100121.34;;;19.88;53.15
37291;BME280;23175;-33.706;151.094;2024-02-26T10:46:13;100121.48;;;19.04;55.13
37291;BME280;23175;-33.706;151.094;2024-02-26T10:48:51;100125.34;;;20.11;54.51
37291;BME280;23175;-33.706;151.094;2024-02-26T10:51:24;100128.69;;;18.37;57.55
37291;BME280;23175;-33.706;151.094;2024-02-26T10:53:58;100133.93;;;19.57;55.07
37291;BME280;23175;-33.706;151.094;2024-02-26T10:56:29;100136.62;;;19.38;55.13
37291;BME280;23175;-33.706;151.094;2024-02-26T10:58:59;100135.66;;;18.44;56.83
37291;BME280;23175;-33.706;151.094;2024-02-26T11:01:31;100133.01;;;18.82;57.26
37291;BME280;23175;-33.706;151.094;2024-02-26T11:04:01;100134.79;;;20.68;53.75
37291;BME280;23175;-33.706;151.094;2024-02-26T11:06:32;100130.89;;;20.91;53.21
37291;BME280;23175;-33.706;151.094;2024-02-26T11:09:03;100134.77;;;21.93;50.65
37291;BME280;23175;-33.706;151.094;2024-02-26T11:11:36;100143.71;;;19.81;53.82
37291;BME280;23175;-33.706;151.094;2024-02-26T11:14:08;100142.91;;;20.81;52.32
37291;BME280;23175;-33.706;151.094;2024-02-26T11:16:39;100141.17;;;21.87;50.00
37291;BME280;23175;-33.706;151.094;2024-02-26T11:19:10;100140.44;;;19.36;53.84
37291;BME280;23175;-33.706;151.094;2024-02-26T11:21:41;100131.61;;;20.86;51.77
37291;BME280;23175;-33.706;151.094;2024-02-26T11:24:13;100121.96;;;20.19;52.45
37291;BME280;23175;-33.706;151.094;2024-02-26T11:26:45;100122.50;;;19.03;54.94
37291;BME280;23175;-33.706;151.094;2024-02-26T11:29:20;100120.51;;;22.25;49.27
37291;BME280;23175;-33.706;151.094;2024-02-26T11:31:52;100121.58;;;20.43;52.34
37291;BME280;23175;-33.706;151.094;2024-02-26T11:34:23;100122.32;;;22.19;49.78
37291;BME280;23175;-33.706;151.094;2024-02-26T11:36:54;100123.95;;;20.83;50.88
37291;BME280;23175;-33.706;151.094;2024-02-26T11:39:26;100121.01;;;21.89;49.04
37291;BME280;23175;-33.706;151.094;2024-02-26T11:41:55;100122.80;;;21.48;50.40
37291;BME280;23175;-33.706;151.094;2024-02-26T11:44:35;100130.15;;;19.07;53.89
37291;BME280;23175;-33.706;151.094;2024-02-26T11:47:17;100127.68;;;21.57;50.16
37291;BME280;23175;-33.706;151.094;2024-02-26T11:49:48;100123.12;;;19.79;52.15
37291;BME280;23175;-33.706;151.094;2024-02-26T11:52:19;100115.36;;;20.10;52.46
37291;BME280;23175;-33.706;151.094;2024-02-26T11:54:51;100114.70;;;21.00;50.68
37291;BME280;23175;-33.706;151.094;2024-02-26T11:57:25;100114.68;;;20.83;51.83
37291;BME280;23175;-33.706;151.094;2024-02-26T11:59:56;100115.75;;;19.55;53.49
37291;BME280;23175;-33.706;151.094;2024-02-26T12:02:46;100113.85;;;18.72;54.93
37291;BME280;23175;-33.706;151.094;2024-02-26T12:05:17;100117.02;;;22.26;48.89
37291;BME280;23175;-33.706;151.094;2024-02-26T12:07:50;100123.57;;;20.49;51.49
37291;BME280;23175;-33.706;151.094;2024-02-26T12:10:25;100125.37;;;21.96;49.24
37291;BME280;23175;-33.706;151.094;2024-02-26T12:13:00;100121.63;;;20.18;51.95
37291;BME280;23175;-33.706;151.094;2024-02-26T12:15:36;100123.67;;;22.54;48.25
37291;BME280;23175;-33.706;151.094;2024-02-26T12:18:08;100130.89;;;22.50;48.54
37291;BME280;23175;-33.706;151.094;2024-02-26T12:20:38;100141.68;;;18.83;54.36
37291;BME280;23175;-33.706;151.094;2024-02-26T12:23:08;100140.05;;;20.15;53.82
37291;BME280;23175;-33.706;151.094;2024-02-26T12:25:38;100145.14;;;19.31;55.06
37291;BME280;23175;-33.706;151.094;2024-02-26T12:28:09;100145.32;;;20.11;54.81
37291;BME280;23175;-33.706;151.094;2024-02-26T12:30:39;100145.82;;;19.06;55.84
37291;BME280;23175;-33.706;151.094;2024-02-26T12:33:09;100147.12;;;19.76;55.07
37291;BME280;23175;-33.706;151.094;2024-02-26T12:35:40;100147.45;;;19.13;56.13
37291;BME280;23175;-33.706;151.094;2024-02-26T12:38:10;100148.62;;;20.04;55.66
37291;BME280;23175;-33.706;151.094;2024-02-26T12:40:41;100151.29;;;19.47;55.08
37291;BME280;23175;-33.706;151.094;2024-02-26T12:43:11;100153.96;;;18.46;57.98
37291;BME280;23175;-33.706;151.094;2024-02-26T12:45:42;100145.59;;;18.10;58.82